sensor_id;sensor_type;location;lat;lon;timestamp;P1;durP1;ratioP1;P2;durP2;ratioP2
22652;SDS011;11493;43.344;26.226;2023-07-24T00:00:20;7.07;;;5.68;;
22652;SDS011;11493;43.344;26.226;2023-07-24T00:02:47;5.63;;;5.13;;
22652;SDS011;11493;43.344;26.226;2023-07-24T00:05:16;6.28;;;5.68;;
22652;SDS011;11493;43.344;26.226;2023-07-24T00:07:43;6.47;;;5.25;;
22652;SDS011;11493;43.344;26.226;2023-07-24T00:10:10;5.95;;;5.40;;
22652;SDS011;11493;43.344;26.226;2023-07-24T00:12:37;7.85;;;5.68;;
22652;SDS011;11493;43.344;26.226;2023-07-24T00:15:05;7.90;;;5.53;;
22652;SDS011;11493;43.344;26.226;2023-07-24T00:17:32;6.68;;;4.72;;
22652;SDS011;11493;43.344;26.226;2023-07-24T00:19:59;5.97;;;5.47;;
22652;SDS011;11493;43.344;26.226;2023-07-24T00:22:28;8.05;;;5.22;;
22652;SDS011;11493;43.344;26.226;2023-07-24T00:24:55;5.85;;;5.32;;
22652;SDS011;11493;43.344;26.226;2023-07-24T00:27:22;9.60;;;6.07;;
22652;SDS011;11493;43.344;26.226;2023-07-24T00:29:49;5.93;;;5.43;;
22652;SDS011;11493;43.344;26.226;2023-07-24T00:32:16;5.60;;;5.07;;
22652;SDS011;11493;43.344;26.226;2023-07-24T00:34:42;5.50;;;5.03;;
22652;SDS011;11493;43.344;26.226;2023-07-24T00:37:10;8.55;;;5.45;;
22652;SDS011;11493;43.344;26.226;2023-07-24T00:39:37;6.15;;;5.53;;
22652;SDS011;11493;43.344;26.226;2023-07-24T00:42:03;5.95;;;5.45;;
22652;SDS011;11493;43.344;26.226;2023-07-24T00:44:31;6.38;;;5.72;;
22652;SDS011;11493;43.344;26.226;2023-07-24T00:46:57;7.35;;;5.22;;
22652;SDS011;11493;43.344;26.226;2023-07-24T00:49:25;5.72;;;5.22;;
22652;SDS011;11493;43.344;26.226;2023-07-24T00:51:52;10.23;;;5.05;;
22652;SDS011;11493;43.344;26.226;2023-07-24T00:54:19;6.55;;;4.72;;
22652;SDS011;11493;43.344;26.226;2023-07-24T00:56:49;7.30;;;5.53;;
22652;SDS011;11493;43.344;26.226;2023-07-24T00:59:17;12.60;;;6.45;;
22652;SDS011;11493;43.344;26.226;2023-07-24T01:01:44;7.65;;;6.05;;
22652;SDS011;11493;43.344;26.226;2023-07-24T01:04:11;6.45;;;5.57;;
22652;SDS011;11493;43.344;26.226;2023-07-24T01:06:39;6.60;;;5.05;;
22652;SDS011;11493;43.344;26.226;2023-07-24T01:09:06;6.57;;;5.82;;
22652;SDS011;11493;43.344;26.226;2023-07-24T01:11:37;5.88;;;5.35;;
22652;SDS011;11493;43.344;26.226;2023-07-24T01:16:37;5.32;;;4.55;;
22652;SDS011;11493;43.344;26.226;2023-07-24T01:19:11;11.10;;;5.45;;
22652;SDS011;11493;43.344;26.226;2023-07-24T01:21:51;8.07;;;5.53;;
22652;SDS011;11493;43.344;26.226;2023-07-24T01:24:39;7.85;;;5.40;;
22652;SDS011;11493;43.344;26.226;2023-07-24T01:27:23;10.98;;;5.25;;
22652;SDS011;11493;43.344;26.226;2023-07-24T01:29:50;6.43;;;5.93;;
22652;SDS011;11493;43.344;26.226;2023-07-24T01:32:18;11.45;;;5.43;;
22652;SDS011;11493;43.344;26.226;2023-07-24T01:34:46;6.15;;;5.07;;
22652;SDS011;11493;43.344;26.226;2023-07-24T01:37:14;5.50;;;5.00;;
22652;SDS011;11493;43.344;26.226;2023-07-24T01:39:43;6.47;;;4.30;;
22652;SDS011;11493;43.344;26.226;2023-07-24T01:42:10;6.90;;;4.72;;
22652;SDS011;11493;43.344;26.226;2023-07-24T01:44:38;5.20;;;4.68;;
22652;SDS011;11493;43.344;26.226;2023-07-24T01:47:05;5.25;;;4.75;;
22652;SDS011;11493;43.344;26.226;2023-07-24T01:49:32;5.85;;;5.35;;
22652;SDS011;11493;43.344;26.226;2023-07-24T01:51:59;9.00;;;5.88;;
22652;SDS011;11493;43.344;26.226;2023-07-24T01:54:26;6.35;;;5.75;;
22652;SDS011;11493;43.344;26.226;2023-07-24T01:56:53;8.05;;;5.53;;
22652;SDS011;11493;43.344;26.226;2023-07-24T01:59:20;7.40;;;5.35;;
22652;SDS011;11493;43.344;26.226;2023-07-24T02:01:47;7.30;;;5.07;;
22652;SDS011;11493;43.344;26.226;2023-07-24T02:04:14;6.25;;;5.47;;
22652;SDS011;11493;43.344;26.226;2023-07-24T02:06:41;7.38;;;5.85;;
22652;SDS011;11493;43.344;26.226;2023-07-24T02:09:08;6.55;;;5.82;;
22652;SDS011;11493;43.344;26.226;2023-07-24T02:11:36;6.20;;;5.00;;
22652;SDS011;11493;43.344;26.226;2023-07-24T02:14:03;5.85;;;5.07;;
22652;SDS011;11493;43.344;26.226;2023-07-24T02:16:30;9.80;;;5.40;;
22652;SDS011;11493;43.344;26.226;2023-07-24T02:18:58;5.40;;;4.90;;
22652;SDS011;11493;43.344;26.226;2023-07-24T02:21:24;5.55;;;5.05;;
22652;SDS011;11493;43.344;26.226;2023-07-24T02:23:53;6.47;;;5.65;;
22652;SDS011;11493;43.344;26.226;2023-07-24T02:26:20;5.78;;;5.28;;
22652;SDS011;11493;43.344;26.226;2023-07-24T02:28:47;6.60;;;5.60;;
22652;SDS011;11493;43.344;26.226;2023-07-24T02:31:14;9.95;;;5.43;;
22652;SDS011;11493;43.344;26.226;2023-07-24T02:33:44;6.05;;;5.38;;
22652;SDS011;11493;43.344;26.226;2023-07-24T02:36:12;5.93;;;5.32;;
22652;SDS011;11493;43.344;26.226;2023-07-24T02:38:40;6.85;;;5.53;;
22652;SDS011;11493;43.344;26.226;2023-07-24T02:41:07;6.88;;;5.72;;
22652;SDS011;11493;43.344;26.226;2023-07-24T02:43:34;5.88;;;5.38;;
22652;SDS011;11493;43.344;26.226;2023-07-24T02:46:02;6.85;;;6.15;;
22652;SDS011;11493;43.344;26.226;2023-07-24T02:48:29;6.97;;;5.78;;
22652;SDS011;11493;43.344;26.226;2023-07-24T02:50:56;6.63;;;5.50;;
22652;SDS011;11493;43.344;26.226;2023-07-24T02:53:23;10.50;;;6.10;;
22652;SDS011;11493;43.344;26.226;2023-07-24T02:55:50;6.68;;;5.95;;
22652;SDS011;11493;43.344;26.226;2023-07-24T02:58:17;6.05;;;5.55;;
22652;SDS011;11493;43.344;26.226;2023-07-24T03:00:44;5.95;;;5.35;;
22652;SDS011;11493;43.344;26.226;2023-07-24T03:03:11;6.47;;;5.60;;
22652;SDS011;11493;43.344;26.226;2023-07-24T03:05:38;6.40;;;5.80;;
22652;SDS011;11493;43.344;26.226;2023-07-24T03:08:05;6.35;;;5.43;;
22652;SDS011;11493;43.344;26.226;2023-07-24T03:10:32;6.45;;;5.85;;
22652;SDS011;11493;43.344;26.226;2023-07-24T03:12:59;6.65;;;5.97;;
22652;SDS011;11493;43.344;26.226;2023-07-24T03:15:26;6.95;;;6.25;;
22652;SDS011;11493;43.344;26.226;2023-07-24T03:17:53;7.75;;;5.78;;
22652;SDS011;11493;43.344;26.226;2023-07-24T03:20:20;8.57;;;5.22;;
22652;SDS011;11493;43.344;26.226;2023-07-24T03:22:48;6.53;;;5.88;;
22652;SDS011;11493;43.344;26.226;2023-07-24T03:25:15;7.20;;;5.95;;
22652;SDS011;11493;43.344;26.226;2023-07-24T03:27:42;7.95;;;6.13;;
22652;SDS011;11493;43.344;26.226;2023-07-24T03:30:09;8.65;;;5.70;;
22652;SDS011;11493;43.344;26.226;2023-07-24T03:32:37;9.25;;;6.00;;
22652;SDS011;11493;43.344;26.226;2023-07-24T03:35:05;8.32;;;6.70;;
22652;SDS011;11493;43.344;26.226;2023-07-24T03:37:34;8.20;;;7.00;;
22652;SDS011;11493;43.344;26.226;2023-07-24T03:40:01;11.15;;;6.20;;
22652;SDS011;11493;43.344;26.226;2023-07-24T03:42:30;7.07;;;6.05;;
22652;SDS011;11493;43.344;26.226;2023-07-24T03:44:58;6.25;;;5.75;;
22652;SDS011;11493;43.344;26.226;2023-07-24T03:47:25;6.60;;;6.00;;
22652;SDS011;11493;43.344;26.226;2023-07-24T03:49:55;7.63;;;5.90;;
22652;SDS011;11493;43.344;26.226;2023-07-24T03:52:22;10.65;;;7.07;;
22652;SDS011;11493;43.344;26.226;2023-07-24T03:54:50;10.95;;;5.95;;
22652;SDS011;11493;43.344;26.226;2023-07-24T03:57:18;7.15;;;5.43;;
22652;SDS011;11493;43.344;26.226;2023-07-24T03:59:45;12.02;;;5.88;;
22652;SDS011;11493;43.344;26.226;2023-07-24T04:02:12;8.57;;;6.13;;
22652;SDS011;11493;43.344;26.226;2023-07-24T04:04:39;11.98;;;6.50;;
22652;SDS011;11493;43.344;26.226;2023-07-24T04:07:06;14.27;;;7.22;;
22652;SDS011;11493;43.344;26.226;2023-07-24T04:09:33;9.15;;;6.10;;
22652;SDS011;11493;43.344;26.226;2023-07-24T04:12:00;6.60;;;6.00;;
22652;SDS011;11493;43.344;26.226;2023-07-24T04:14:27;8.57;;;6.45;;
22652;SDS011;11493;43.344;26.226;2023-07-24T04:16:54;7.57;;;6.38;;
22652;SDS011;11493;43.344;26.226;2023-07-24T04:19:22;8.07;;;6.78;;
22652;SDS011;11493;43.344;26.226;2023-07-24T04:21:50;8.70;;;7.43;;
22652;SDS011;11493;43.344;26.226;2023-07-24T04:24:17;7.72;;;6.82;;
22652;SDS011;11493;43.344;26.226;2023-07-24T04:26:44;10.63;;;7.55;;
22652;SDS011;11493;43.344;26.226;2023-07-24T04:29:11;9.32;;;7.53;;
22652;SDS011;11493;43.344;26.226;2023-07-24T04:31:42;10.10;;;7.35;;
22652;SDS011;11493;43.344;26.226;2023-07-24T04:34:08;8.82;;;7.68;;
22652;SDS011;11493;43.344;26.226;2023-07-24T04:36:36;8.65;;;7.85;;
22652;SDS011;11493;43.344;26.226;2023-07-24T04:39:02;12.73;;;7.57;;
22652;SDS011;11493;43.344;26.226;2023-07-24T04:41:30;12.23;;;8.07;;
22652;SDS011;11493;43.344;26.226;2023-07-24T04:43:56;9.98;;;7.78;;
22652;SDS011;11493;43.344;26.226;2023-07-24T04:46:23;10.65;;;8.13;;
22652;SDS011;11493;43.344;26.226;2023-07-24T04:48:50;9.50;;;8.32;;
22652;SDS011;11493;43.344;26.226;2023-07-24T04:51:22;16.05;;;9.70;;
22652;SDS011;11493;43.344;26.226;2023-07-24T04:53:49;10.38;;;7.55;;
22652;SDS011;11493;43.344;26.226;2023-07-24T04:56:16;7.97;;;7.10;;
22652;SDS011;11493;43.344;26.226;2023-07-24T04:58:43;12.80;;;6.22;;
22652;SDS011;11493;43.344;26.226;2023-07-24T05:01:10;13.73;;;6.43;;
22652;SDS011;11493;43.344;26.226;2023-07-24T05:03:37;9.18;;;5.68;;
22652;SDS011;11493;43.344;26.226;2023-07-24T05:06:04;15.40;;;7.60;;
22652;SDS011;11493;43.344;26.226;2023-07-24T05:08:31;7.65;;;6.75;;
22652;SDS011;11493;43.344;26.226;2023-07-24T05:10:59;10.43;;;6.05;;
22652;SDS011;11493;43.344;26.226;2023-07-24T05:13:26;9.98;;;6.13;;
22652;SDS011;11493;43.344;26.226;2023-07-24T05:15:54;7.28;;;5.60;;
22652;SDS011;11493;43.344;26.226;2023-07-24T05:18:23;6.63;;;6.03;;
22652;SDS011;11493;43.344;26.226;2023-07-24T05:20:50;6.68;;;6.07;;
22652;SDS011;11493;43.344;26.226;2023-07-24T05:23:20;7.13;;;6.53;;
22652;SDS011;11493;43.344;26.226;2023-07-24T05:25:56;18.92;;;12.85;;
22652;SDS011;11493;43.344;26.226;2023-07-24T05:28:28;17.92;;;14.65;;
22652;SDS011;11493;43.344;26.226;2023-07-24T05:30:55;22.85;;;18.00;;
22652;SDS011;11493;43.344;26.226;2023-07-24T05:33:26;18.73;;;16.80;;
22652;SDS011;11493;43.344;26.226;2023-07-24T05:35:59;20.23;;;15.55;;
22652;SDS011;11493;43.344;26.226;2023-07-24T05:38:28;19.45;;;17.40;;
22652;SDS011;11493;43.344;26.226;2023-07-24T05:40:59;42.33;;;37.75;;
22652;SDS011;11493;43.344;26.226;2023-07-24T05:43:28;29.80;;;26.55;;
22652;SDS011;11493;43.344;26.226;2023-07-24T05:45:56;35.65;;;29.98;;
22652;SDS011;11493;43.344;26.226;2023-07-24T05:48:24;16.50;;;14.90;;
22652;SDS011;11493;43.344;26.226;2023-07-24T05:50:51;11.00;;;8.00;;
22652;SDS011;11493;43.344;26.226;2023-07-24T05:53:19;8.43;;;7.68;;
22652;SDS011;11493;43.344;26.226;2023-07-24T05:55:45;8.77;;;6.35;;
22652;SDS011;11493;43.344;26.226;2023-07-24T05:58:12;10.68;;;5.15;;
22652;SDS011;11493;43.344;26.226;2023-07-24T06:00:41;8.82;;;4.93;;
22652;SDS011;11493;43.344;26.226;2023-07-24T06:03:08;13.00;;;5.38;;
22652;SDS011;11493;43.344;26.226;2023-07-24T06:05:35;7.30;;;5.40;;
22652;SDS011;11493;43.344;26.226;2023-07-24T06:08:02;7.68;;;5.15;;
22652;SDS011;11493;43.344;26.226;2023-07-24T06:10:29;5.72;;;5.20;;
22652;SDS011;11493;43.344;26.226;2023-07-24T06:12:56;17.33;;;5.65;;
22652;SDS011;11493;43.344;26.226;2023-07-24T06:15:23;10.38;;;6.22;;
22652;SDS011;11493;43.344;26.226;2023-07-24T06:17:50;7.15;;;5.13;;
22652;SDS011;11493;43.344;26.226;2023-07-24T06:20:20;31.25;;;7.03;;
22652;SDS011;11493;43.344;26.226;2023-07-24T06:22:47;5.30;;;4.90;;
22652;SDS011;11493;43.344;26.226;2023-07-24T06:25:14;8.48;;;5.32;;
22652;SDS011;11493;43.344;26.226;2023-07-24T06:27:42;9.45;;;5.90;;
22652;SDS011;11493;43.344;26.226;2023-07-24T06:30:09;11.70;;;6.57;;
22652;SDS011;11493;43.344;26.226;2023-07-24T06:32:42;24.85;;;7.63;;
22652;SDS011;11493;43.344;26.226;2023-07-24T06:35:10;8.65;;;6.40;;
22652;SDS011;11493;43.344;26.226;2023-07-24T06:37:37;10.25;;;6.50;;
22652;SDS011;11493;43.344;26.226;2023-07-24T06:40:04;6.95;;;6.18;;
22652;SDS011;11493;43.344;26.226;2023-07-24T06:42:32;9.75;;;6.05;;
22652;SDS011;11493;43.344;26.226;2023-07-24T06:45:00;8.25;;;6.45;;
22652;SDS011;11493;43.344;26.226;2023-07-24T06:47:27;8.48;;;5.95;;
22652;SDS011;11493;43.344;26.226;2023-07-24T06:49:54;6.45;;;5.57;;
22652;SDS011;11493;43.344;26.226;2023-07-24T06:52:21;9.50;;;5.80;;
22652;SDS011;11493;43.344;26.226;2023-07-24T06:54:48;9.52;;;6.15;;
22652;SDS011;11493;43.344;26.226;2023-07-24T06:57:15;12.90;;;6.28;;
22652;SDS011;11493;43.344;26.226;2023-07-24T06:59:42;19.13;;;7.13;;
22652;SDS011;11493;43.344;26.226;2023-07-24T07:02:09;13.10;;;6.05;;
22652;SDS011;11493;43.344;26.226;2023-07-24T07:04:36;7.30;;;5.63;;
22652;SDS011;11493;43.344;26.226;2023-07-24T07:07:03;6.47;;;5.38;;
22652;SDS011;11493;43.344;26.226;2023-07-24T07:09:30;8.27;;;5.32;;
22652;SDS011;11493;43.344;26.226;2023-07-24T07:11:57;13.05;;;6.68;;
22652;SDS011;11493;43.344;26.226;2023-07-24T07:14:25;15.20;;;5.70;;
22652;SDS011;11493;43.344;26.226;2023-07-24T07:16:52;7.72;;;6.07;;
22652;SDS011;11493;43.344;26.226;2023-07-24T07:19:19;8.35;;;4.97;;
22652;SDS011;11493;43.344;26.226;2023-07-24T07:21:46;5.65;;;4.43;;
22652;SDS011;11493;43.344;26.226;2023-07-24T07:24:14;5.60;;;4.45;;
22652;SDS011;11493;43.344;26.226;2023-07-24T07:26:41;7.78;;;4.68;;
22652;SDS011;11493;43.344;26.226;2023-07-24T07:29:09;10.40;;;4.32;;
22652;SDS011;11493;43.344;26.226;2023-07-24T07:31:36;5.90;;;3.63;;
22652;SDS011;11493;43.344;26.226;2023-07-24T07:34:03;14.25;;;11.00;;
22652;SDS011;11493;43.344;26.226;2023-07-24T07:36:30;12.80;;;8.63;;
22652;SDS011;11493;43.344;26.226;2023-07-24T07:38:58;8.88;;;7.97;;
22652;SDS011;11493;43.344;26.226;2023-07-24T07:41:25;7.28;;;6.55;;
22652;SDS011;11493;43.344;26.226;2023-07-24T07:43:52;5.88;;;5.13;;
22652;SDS011;11493;43.344;26.226;2023-07-24T07:46:19;4.80;;;4.40;;
22652;SDS011;11493;43.344;26.226;2023-07-24T07:48:48;6.28;;;3.78;;
22652;SDS011;11493;43.344;26.226;2023-07-24T07:51:15;3.90;;;3.60;;
22652;SDS011;11493;43.344;26.226;2023-07-24T07:53:42;3.92;;;3.63;;
22652;SDS011;11493;43.344;26.226;2023-07-24T07:56:09;5.70;;;3.90;;
22652;SDS011;11493;43.344;26.226;2023-07-24T07:58:37;4.00;;;3.55;;
22652;SDS011;11493;43.344;26.226;2023-07-24T08:01:04;8.85;;;3.72;;
22652;SDS011;11493;43.344;26.226;2023-07-24T08:03:32;9.77;;;2.83;;
22652;SDS011;11493;43.344;26.226;2023-07-24T08:06:00;5.20;;;3.05;;
22652;SDS011;11493;43.344;26.226;2023-07-24T08:08:27;3.88;;;3.45;;
22652;SDS011;11493;43.344;26.226;2023-07-24T08:10:54;4.18;;;3.88;;
22652;SDS011;11493;43.344;26.226;2023-07-24T08:13:21;5.68;;;5.10;;
22652;SDS011;11493;43.344;26.226;2023-07-24T08:15:48;8.23;;;5.68;;
22652;SDS011;11493;43.344;26.226;2023-07-24T08:18:16;4.03;;;3.50;;
22652;SDS011;11493;43.344;26.226;2023-07-24T08:20:43;6.15;;;3.55;;
22652;SDS011;11493;43.344;26.226;2023-07-24T08:23:10;3.30;;;3.00;;
22652;SDS011;11493;43.344;26.226;2023-07-24T08:25:37;3.58;;;3.28;;
22652;SDS011;11493;43.344;26.226;2023-07-24T08:28:04;3.70;;;3.22;;
22652;SDS011;11493;43.344;26.226;2023-07-24T08:30:35;6.25;;;3.42;;
22652;SDS011;11493;43.344;26.226;2023-07-24T08:33:02;3.42;;;2.97;;
22652;SDS011;11493;43.344;26.226;2023-07-24T08:35:29;4.75;;;2.90;;
22652;SDS011;11493;43.344;26.226;2023-07-24T08:37:56;5.07;;;2.67;;
22652;SDS011;11493;43.344;26.226;2023-07-24T08:40:23;3.80;;;3.33;;
22652;SDS011;11493;43.344;26.226;2023-07-24T08:42:50;5.22;;;3.10;;
22652;SDS011;11493;43.344;26.226;2023-07-24T08:45:18;6.72;;;3.60;;
22652;SDS011;11493;43.344;26.226;2023-07-24T08:47:46;4.93;;;2.80;;
22652;SDS011;11493;43.344;26.226;2023-07-24T08:50:16;3.27;;;2.97;;
22652;SDS011;11493;43.344;26.226;2023-07-24T08:52:45;4.50;;;2.58;;
22652;SDS011;11493;43.344;26.226;2023-07-24T08:55:13;7.30;;;2.45;;
22652;SDS011;11493;43.344;26.226;2023-07-24T08:57:40;3.58;;;2.67;;
22652;SDS011;11493;43.344;26.226;2023-07-24T09:00:11;3.87;;;2.63;;
22652;SDS011;11493;43.344;26.226;2023-07-24T09:02:38;4.53;;;4.22;;
22652;SDS011;11493;43.344;26.226;2023-07-24T09:05:05;2.63;;;1.80;;
22652;SDS011;11493;43.344;26.226;2023-07-24T09:07:33;3.58;;;1.98;;
22652;SDS011;11493;43.344;26.226;2023-07-24T09:10:00;4.32;;;2.53;;
22652;SDS011;11493;43.344;26.226;2023-07-24T09:12:27;2.40;;;2.20;;
22652;SDS011;11493;43.344;26.226;2023-07-24T09:15:03;3.22;;;2.47;;
22652;SDS011;11493;43.344;26.226;2023-07-24T09:17:33;3.03;;;2.42;;
22652;SDS011;11493;43.344;26.226;2023-07-24T09:20:01;2.22;;;1.80;;
22652;SDS011;11493;43.344;26.226;2023-07-24T09:22:29;2.97;;;2.28;;
22652;SDS011;11493;43.344;26.226;2023-07-24T09:24:57;3.65;;;2.20;;
22652;SDS011;11493;43.344;26.226;2023-07-24T09:27:25;2.55;;;1.95;;
22652;SDS011;11493;43.344;26.226;2023-07-24T09:29:58;4.20;;;2.13;;
22652;SDS011;11493;43.344;26.226;2023-07-24T09:32:26;5.15;;;1.90;;
22652;SDS011;11493;43.344;26.226;2023-07-24T09:34:54;5.05;;;2.35;;
22652;SDS011;11493;43.344;26.226;2023-07-24T09:37:25;4.50;;;2.33;;
22652;SDS011;11493;43.344;26.226;2023-07-24T09:39:53;9.23;;;2.55;;
22652;SDS011;11493;43.344;26.226;2023-07-24T09:42:33;2.60;;;2.38;;
22652;SDS011;11493;43.344;26.226;2023-07-24T09:45:18;3.00;;;2.45;;
22652;SDS011;11493;43.344;26.226;2023-07-24T09:47:49;2.30;;;2.10;;
22652;SDS011;11493;43.344;26.226;2023-07-24T09:50:22;2.78;;;2.15;;
22652;SDS011;11493;43.344;26.226;2023-07-24T09:52:50;3.75;;;2.00;;
22652;SDS011;11493;43.344;26.226;2023-07-24T09:55:19;4.35;;;2.67;;
22652;SDS011;11493;43.344;26.226;2023-07-24T09:57:53;3.35;;;2.83;;
22652;SDS011;11493;43.344;26.226;2023-07-24T10:00:21;4.70;;;1.70;;
22652;SDS011;11493;43.344;26.226;2023-07-24T10:02:50;2.70;;;2.33;;
22652;SDS011;11493;43.344;26.226;2023-07-24T10:05:18;3.28;;;2.17;;
22652;SDS011;11493;43.344;26.226;2023-07-24T10:07:45;3.83;;;2.05;;
22652;SDS011;11493;43.344;26.226;2023-07-24T10:10:13;3.85;;;2.35;;
22652;SDS011;11493;43.344;26.226;2023-07-24T10:12:41;5.30;;;2.72;;
22652;SDS011;11493;43.344;26.226;2023-07-24T10:15:15;2.42;;;2.05;;
22652;SDS011;11493;43.344;26.226;2023-07-24T10:17:42;2.53;;;2.33;;
22652;SDS011;11493;43.344;26.226;2023-07-24T10:20:11;3.10;;;2.30;;
22652;SDS011;11493;43.344;26.226;2023-07-24T10:22:41;2.67;;;2.10;;
22652;SDS011;11493;43.344;26.226;2023-07-24T10:25:10;5.85;;;2.22;;
22652;SDS011;11493;43.344;26.226;2023-07-24T10:27:44;2.17;;;1.98;;
22652;SDS011;11493;43.344;26.226;2023-07-24T10:30:13;6.07;;;5.50;;
22652;SDS011;11493;43.344;26.226;2023-07-24T10:33:12;3.00;;;2.33;;
22652;SDS011;11493;43.344;26.226;2023-07-24T10:35:45;2.50;;;2.30;;
22652;SDS011;11493;43.344;26.226;2023-07-24T10:38:15;4.43;;;3.55;;
22652;SDS011;11493;43.344;26.226;2023-07-24T10:40:44;3.92;;;2.40;;
22652;SDS011;11493;43.344;26.226;2023-07-24T10:43:18;2.72;;;2.53;;
22652;SDS011;11493;43.344;26.226;2023-07-24T10:45:51;2.53;;;2.20;;
22652;SDS011;11493;43.344;26.226;2023-07-24T10:48:20;3.65;;;2.90;;
22652;SDS011;11493;43.344;26.226;2023-07-24T10:50:48;4.82;;;3.10;;
22652;SDS011;11493;43.344;26.226;2023-07-24T10:53:20;4.15;;;2.47;;
22652;SDS011;11493;43.344;26.226;2023-07-24T10:55:49;4.63;;;3.00;;
22652;SDS011;11493;43.344;26.226;2023-07-24T10:58:17;2.85;;;2.65;;
22652;SDS011;11493;43.344;26.226;2023-07-24T11:00:44;3.70;;;3.40;;
22652;SDS011;11493;43.344;26.226;2023-07-24T11:03:13;4.10;;;3.40;;
22652;SDS011;11493;43.344;26.226;2023-07-24T11:05:41;4.90;;;3.00;;
22652;SDS011;11493;43.344;26.226;2023-07-24T11:08:13;4.43;;;3.55;;
22652;SDS011;11493;43.344;26.226;2023-07-24T11:13:17;3.38;;;3.08;;
22652;SDS011;11493;43.344;26.226;2023-07-24T11:15:50;3.38;;;3.08;;
22652;SDS011;11493;43.344;26.226;2023-07-24T11:18:19;4.72;;;3.60;;
22652;SDS011;11493;43.344;26.226;2023-07-24T11:21:11;4.00;;;3.55;;
22652;SDS011;11493;43.344;26.226;2023-07-24T11:23:50;3.78;;;3.42;;
22652;SDS011;11493;43.344;26.226;2023-07-24T11:26:19;5.15;;;3.75;;
22652;SDS011;11493;43.344;26.226;2023-07-24T11:28:51;4.43;;;3.47;;
22652;SDS011;11493;43.344;26.226;2023-07-24T11:33:48;6.05;;;4.65;;
22652;SDS011;11493;43.344;26.226;2023-07-24T11:36:16;4.90;;;4.30;;
22652;SDS011;11493;43.344;26.226;2023-07-24T11:38:47;5.20;;;4.70;;
22652;SDS011;11493;43.344;26.226;2023-07-24T11:41:15;5.00;;;4.50;;
22652;SDS011;11493;43.344;26.226;2023-07-24T11:43:50;5.43;;;4.05;;
22652;SDS011;11493;43.344;26.226;2023-07-24T11:46:24;4.35;;;3.95;;
22652;SDS011;11493;43.344;26.226;2023-07-24T11:48:51;3.63;;;3.22;;
22652;SDS011;11493;43.344;26.226;2023-07-24T11:51:23;3.80;;;3.28;;
22652;SDS011;11493;43.344;26.226;2023-07-24T11:53:57;3.65;;;3.35;;
22652;SDS011;11493;43.344;26.226;2023-07-24T11:56:31;3.97;;;3.25;;
22652;SDS011;11493;43.344;26.226;2023-07-24T11:59:10;3.47;;;3.17;;
22652;SDS011;11493;43.344;26.226;2023-07-24T12:01:41;3.97;;;3.65;;
22652;SDS011;11493;43.344;26.226;2023-07-24T12:04:12;3.65;;;3.22;;
22652;SDS011;11493;43.344;26.226;2023-07-24T12:06:40;4.60;;;3.70;;
22652;SDS011;11493;43.344;26.226;2023-07-24T12:09:07;4.25;;;3.85;;
22652;SDS011;11493;43.344;26.226;2023-07-24T12:11:40;6.38;;;3.67;;
22652;SDS011;11493;43.344;26.226;2023-07-24T12:14:14;5.80;;;4.30;;
22652;SDS011;11493;43.344;26.226;2023-07-24T12:16:41;7.03;;;3.97;;
22652;SDS011;11493;43.344;26.226;2023-07-24T12:19:09;4.43;;;3.47;;
22652;SDS011;11493;43.344;26.226;2023-07-24T12:21:36;4.35;;;3.95;;
22652;SDS011;11493;43.344;26.226;2023-07-24T12:24:03;5.05;;;4.55;;
22652;SDS011;11493;43.344;26.226;2023-07-24T12:26:31;4.90;;;4.45;;
22652;SDS011;11493;43.344;26.226;2023-07-24T12:28:58;6.00;;;4.50;;
22652;SDS011;11493;43.344;26.226;2023-07-24T12:31:27;4.88;;;4.38;;
22652;SDS011;11493;43.344;26.226;2023-07-24T12:33:55;6.85;;;4.53;;
22652;SDS011;11493;43.344;26.226;2023-07-24T12:36:23;5.07;;;4.15;;
22652;SDS011;11493;43.344;26.226;2023-07-24T12:38:50;6.97;;;4.10;;
22652;SDS011;11493;43.344;26.226;2023-07-24T12:41:17;4.72;;;4.32;;
22652;SDS011;11493;43.344;26.226;2023-07-24T12:43:44;4.95;;;4.15;;
22652;SDS011;11493;43.344;26.226;2023-07-24T12:46:11;5.93;;;5.05;;
22652;SDS011;11493;43.344;26.226;2023-07-24T12:48:38;4.93;;;3.65;;
22652;SDS011;11493;43.344;26.226;2023-07-24T12:51:05;6.22;;;4.50;;
22652;SDS011;11493;43.344;26.226;2023-07-24T12:53:51;6.25;;;4.53;;
22652;SDS011;11493;43.344;26.226;2023-07-24T12:56:38;6.22;;;5.10;;
22652;SDS011;11493;43.344;26.226;2023-07-24T12:59:06;5.80;;;5.10;;
22652;SDS011;11493;43.344;26.226;2023-07-24T13:01:33;6.38;;;5.78;;
22652;SDS011;11493;43.344;26.226;2023-07-24T13:04:00;7.45;;;5.00;;
22652;SDS011;11493;43.344;26.226;2023-07-24T13:06:27;6.15;;;4.57;;
22652;SDS011;11493;43.344;26.226;2023-07-24T13:08:56;6.18;;;4.30;;
22652;SDS011;11493;43.344;26.226;2023-07-24T13:11:23;6.32;;;4.85;;
22652;SDS011;11493;43.344;26.226;2023-07-24T13:13:50;4.45;;;4.05;;
22652;SDS011;11493;43.344;26.226;2023-07-24T13:16:17;4.60;;;3.90;;
22652;SDS011;11493;43.344;26.226;2023-07-24T13:18:44;5.07;;;3.95;;
22652;SDS011;11493;43.344;26.226;2023-07-24T13:21:11;5.40;;;3.97;;
22652;SDS011;11493;43.344;26.226;2023-07-24T13:23:50;5.10;;;3.70;;
22652;SDS011;11493;43.344;26.226;2023-07-24T13:26:18;4.20;;;3.70;;
22652;SDS011;11493;43.344;26.226;2023-07-24T13:28:45;5.07;;;4.05;;
22652;SDS011;11493;43.344;26.226;2023-07-24T13:31:13;4.32;;;3.92;;
22652;SDS011;11493;43.344;26.226;2023-07-24T13:33:41;4.65;;;4.25;;
22652;SDS011;11493;43.344;26.226;2023-07-24T13:36:09;4.50;;;4.10;;
22652;SDS011;11493;43.344;26.226;2023-07-24T13:38:36;4.63;;;4.22;;
22652;SDS011;11493;43.344;26.226;2023-07-24T13:41:03;4.38;;;3.88;;
22652;SDS011;11493;43.344;26.226;2023-07-24T13:43:31;4.35;;;3.95;;
22652;SDS011;11493;43.344;26.226;2023-07-24T13:45:59;6.65;;;3.60;;
22652;SDS011;11493;43.344;26.226;2023-07-24T13:48:27;5.43;;;3.75;;
22652;SDS011;11493;43.344;26.226;2023-07-24T13:50:54;7.05;;;3.92;;
22652;SDS011;11493;43.344;26.226;2023-07-24T13:53:21;4.30;;;3.45;;
22652;SDS011;11493;43.344;26.226;2023-07-24T13:55:48;4.03;;;3.63;;
22652;SDS011;11493;43.344;26.226;2023-07-24T13:58:16;5.45;;;4.68;;
22652;SDS011;11493;43.344;26.226;2023-07-24T14:00:43;4.35;;;3.95;;
22652;SDS011;11493;43.344;26.226;2023-07-24T14:03:10;4.53;;;3.80;;
22652;SDS011;11493;43.344;26.226;2023-07-24T14:05:37;4.28;;;3.88;;
22652;SDS011;11493;43.344;26.226;2023-07-24T14:08:05;4.35;;;3.67;;
22652;SDS011;11493;43.344;26.226;2023-07-24T14:10:41;4.45;;;4.10;;
22652;SDS011;11493;43.344;26.226;2023-07-24T14:13:08;5.35;;;4.10;;
22652;SDS011;11493;43.344;26.226;2023-07-24T14:15:35;6.28;;;4.10;;
22652;SDS011;11493;43.344;26.226;2023-07-24T14:18:03;5.10;;;4.60;;
22652;SDS011;11493;43.344;26.226;2023-07-24T14:20:30;5.97;;;4.60;;
22652;SDS011;11493;43.344;26.226;2023-07-24T14:22:57;4.80;;;4.00;;
22652;SDS011;11493;43.344;26.226;2023-07-24T14:25:24;4.47;;;4.03;;
22652;SDS011;11493;43.344;26.226;2023-07-24T14:27:51;6.13;;;4.15;;
22652;SDS011;11493;43.344;26.226;2023-07-24T14:30:19;4.40;;;3.90;;
22652;SDS011;11493;43.344;26.226;2023-07-24T14:32:46;4.38;;;4.05;;
22652;SDS011;11493;43.344;26.226;2023-07-24T14:35:16;4.32;;;3.92;;
22652;SDS011;11493;43.344;26.226;2023-07-24T14:37:43;7.97;;;3.58;;
22652;SDS011;11493;43.344;26.226;2023-07-24T14:40:10;6.13;;;3.65;;
22652;SDS011;11493;43.344;26.226;2023-07-24T14:42:40;5.03;;;3.92;;
22652;SDS011;11493;43.344;26.226;2023-07-24T14:45:07;4.22;;;3.83;;
22652;SDS011;11493;43.344;26.226;2023-07-24T14:47:37;4.25;;;3.85;;